sensor_id;sensor_type;location;lat;lon;timestamp;pressure;altitude;pressure_sealevel;temperature;humidity
76126;BME280;65174;48.138;21.002;2023-04-01T00:01:32;97858.69;;;9.85;90.28
76126;BME280;65174;48.138;21.002;2023-04-01T00:04:34;97849.75;;;9.89;90.77
76126;BME280;65174;48.138;21.002;2023-04-01T00:07:37;97842.91;;;9.99;90.21
76126;BME280;65174;48.138;21.002;2023-04-01T00:10:40;97838.66;;;9.88;90.65
76126;BME280;65174;48.138;21.002;2023-04-01T00:13:42;97849.66;;;10.00;90.13
76126;BME280;65174;48.138;21.002;2023-04-01T00:16:44;97832.59;;;10.08;89.76
76126;BME280;65174;48.138;21.002;2023-04-01T00:19:46;97833.91;;;9.93;89.97
76126;BME280;65174;48.138;21.002;2023-04-01T00:22:48;97820.34;;;9.91;90.22
76126;BME280;65174;48.138;21.002;2023-04-01T00:25:50;97817.91;;;9.80;90.89
76126;BME280;65174;48.138;21.002;2023-04-01T00:28:53;97817.50;;;9.75;90.93
76126;BME280;65174;48.138;21.002;2023-04-01T00:31:55;97821.03;;;9.84;90.32
76126;BME280;65174;48.138;21.002;2023-04-01T00:34:57;97815.06;;;9.83;90.47
76126;BME280;65174;48.138;21.002;2023-04-01T00:38:01;97809.47;;;9.78;90.79
76126;BME280;65174;48.138;21.002;2023-04-01T00:41:04;97813.94;;;9.76;90.36
76126;BME280;65174;48.138;21.002;2023-04-01T00:44:23;97812.69;;;9.51;91.01
76126;BME280;65174;48.138;21.002;2023-04-01T00:47:26;97812.97;;;9.48;91.62
76126;BME280;65174;48.138;21.002;2023-04-01T00:50:30;97804.44;;;9.57;91.25
76126;BME280;65174;48.138;21.002;2023-04-01T00:53:36;97807.91;;;9.47;91.29
76126;BME280;65174;48.138;21.002;2023-04-01T00:56:45;97809.88;;;9.64;90.57
76126;BME280;65174;48.138;21.002;2023-04-01T00:59:52;97812.34;;;9.75;89.75
76126;BME280;65174;48.138;21.002;2023-04-01T01:02:59;97813.84;;;9.78;89.35
76126;BME280;65174;48.138;21.002;2023-04-01T01:16:18;97813.69;;;9.70;89.23
76126;BME280;65174;48.138;21.002;2023-04-01T01:33:09;97805.78;;;9.61;86.92
76126;BME280;65174;48.138;21.002;2023-04-01T01:36:15;97797.81;;;9.65;87.22
76126;BME280;65174;48.138;21.002;2023-04-01T01:39:20;97801.44;;;9.52;87.83
76126;BME280;65174;48.138;21.002;2023-04-01T01:42:31;97812.59;;;9.63;88.16
76126;BME280;65174;48.138;21.002;2023-04-01T01:45:37;97800.63;;;9.52;88.76
76126;BME280;65174;48.138;21.002;2023-04-01T01:48:43;97816.63;;;9.55;88.56
76126;BME280;65174;48.138;21.002;2023-04-01T01:51:46;97812.72;;;9.61;88.63
76126;BME280;65174;48.138;21.002;2023-04-01T01:54:51;97805.69;;;9.63;88.80
76126;BME280;65174;48.138;21.002;2023-04-01T01:58:00;97811.34;;;9.57;88.84
76126;BME280;65174;48.138;21.002;2023-04-01T02:01:07;97815.00;;;9.54;89.20
76126;BME280;65174;48.138;21.002;2023-04-01T02:04:11;97806.84;;;9.49;88.78
76126;BME280;65174;48.138;21.002;2023-04-01T02:07:24;97798.31;;;9.49;88.90
76126;BME280;65174;48.138;21.002;2023-04-01T02:10:31;97798.03;;;9.42;88.22
76126;BME280;65174;48.138;21.002;2023-04-01T02:13:47;97801.53;;;9.32;88.23
76126;BME280;65174;48.138;21.002;2023-04-01T02:16:57;97804.63;;;9.35;88.05
76126;BME280;65174;48.138;21.002;2023-04-01T02:20:05;97804.56;;;9.16;87.98
76126;BME280;65174;48.138;21.002;2023-04-01T02:23:10;97798.28;;;9.09;88.78
76126;BME280;65174;48.138;21.002;2023-04-01T02:26:14;97802.50;;;9.10;88.48
76126;BME280;65174;48.138;21.002;2023-04-01T02:29:18;97796.00;;;9.06;87.99
76126;BME280;65174;48.138;21.002;2023-04-01T02:32:21;97792.28;;;8.99;88.55
76126;BME280;65174;48.138;21.002;2023-04-01T02:35:23;97794.00;;;8.89;88.70
76126;BME280;65174;48.138;21.002;2023-04-01T02:38:27;97794.59;;;8.72;89.01
76126;BME280;65174;48.138;21.002;2023-04-01T02:41:29;97801.69;;;8.79;89.15
76126;BME280;65174;48.138;21.002;2023-04-01T02:44:31;97800.59;;;8.82;88.70
76126;BME280;65174;48.138;21.002;2023-04-01T02:47:33;97794.22;;;8.76;88.61
76126;BME280;65174;48.138;21.002;2023-04-01T02:50:35;97791.47;;;8.68;88.99
76126;BME280;65174;48.138;21.002;2023-04-01T02:53:37;97799.91;;;8.59;89.00
76126;BME280;65174;48.138;21.002;2023-04-01T02:56:39;97794.28;;;8.65;88.74
76126;BME280;65174;48.138;21.002;2023-04-01T02:59:41;97790.41;;;8.71;88.58
76126;BME280;65174;48.138;21.002;2023-04-01T03:02:43;97799.03;;;8.70;88.92
76126;BME280;65174;48.138;21.002;2023-04-01T03:05:46;97794.91;;;8.58;88.65
76126;BME280;65174;48.138;21.002;2023-04-01T03:08:48;97802.13;;;8.64;88.45
76126;BME280;65174;48.138;21.002;2023-04-01T03:11:50;97802.94;;;8.64;88.63
76126;BME280;65174;48.138;21.002;2023-04-01T03:14:52;97789.41;;;8.62;88.30
76126;BME280;65174;48.138;21.002;2023-04-01T03:17:54;97792.19;;;8.59;88.04
76126;BME280;65174;48.138;21.002;2023-04-01T03:20:56;97779.31;;;8.50;88.31
76126;BME280;65174;48.138;21.002;2023-04-01T03:24:04;97791.66;;;8.35;88.37
76126;BME280;65174;48.138;21.002;2023-04-01T03:27:06;97788.03;;;8.38;88.09
76126;BME280;65174;48.138;21.002;2023-04-01T03:30:09;97780.22;;;8.28;88.14
76126;BME280;65174;48.138;21.002;2023-04-01T03:33:19;97782.78;;;8.28;87.88
76126;BME280;65174;48.138;21.002;2023-04-01T03:36:22;97783.63;;;8.18;88.07
76126;BME280;65174;48.138;21.002;2023-04-01T03:39:24;97782.94;;;8.16;88.07
76126;BME280;65174;48.138;21.002;2023-04-01T03:42:27;97789.97;;;8.02;88.24
76126;BME280;65174;48.138;21.002;2023-04-01T03:45:29;97786.84;;;7.99;88.17
76126;BME280;65174;48.138;21.002;2023-04-01T03:48:31;97791.06;;;8.00;88.46
76126;BME280;65174;48.138;21.002;2023-04-01T03:51:33;97776.56;;;8.10;88.03
76126;BME280;65174;48.138;21.002;2023-04-01T03:54:35;97788.69;;;8.08;87.42
76126;BME280;65174;48.138;21.002;2023-04-01T03:57:37;97778.59;;;7.95;88.21
76126;BME280;65174;48.138;21.002;2023-04-01T04:00:49;97780.50;;;7.82;87.71
76126;BME280;65174;48.138;21.002;2023-04-01T04:03:51;97780.16;;;7.76;87.40
76126;BME280;65174;48.138;21.002;2023-04-01T04:06:54;97784.13;;;7.69;88.12
76126;BME280;65174;48.138;21.002;2023-04-01T04:09:57;97775.88;;;7.54;88.37
76126;BME280;65174;48.138;21.002;2023-04-01T04:12:59;97787.09;;;7.53;88.39
76126;BME280;65174;48.138;21.002;2023-04-01T04:16:04;97797.50;;;7.52;88.17
76126;BME280;65174;48.138;21.002;2023-04-01T04:19:07;97795.13;;;7.60;89.12
76126;BME280;65174;48.138;21.002;2023-04-01T04:22:09;97798.38;;;7.73;89.39
76126;BME280;65174;48.138;21.002;2023-04-01T04:25:11;97793.31;;;7.82;89.09
76126;BME280;65174;48.138;21.002;2023-04-01T04:28:13;97796.59;;;7.84;88.75
76126;BME280;65174;48.138;21.002;2023-04-01T04:31:20;97796.72;;;7.83;88.63
76126;BME280;65174;48.138;21.002;2023-04-01T04:34:24;97805.19;;;7.52;88.71
76126;BME280;65174;48.138;21.002;2023-04-01T04:37:26;97810.75;;;7.57;88.50
76126;BME280;65174;48.138;21.002;2023-04-01T04:40:28;97813.00;;;7.39;88.99
76126;BME280;65174;48.138;21.002;2023-04-01T04:43:31;97798.19;;;7.32;89.20
76126;BME280;65174;48.138;21.002;2023-04-01T04:46:40;97783.75;;;6.97;89.38
76126;BME280;65174;48.138;21.002;2023-04-01T04:49:48;97810.34;;;7.07;89.99
76126;BME280;65174;48.138;21.002;2023-04-01T04:52:50;97813.84;;;7.29;89.80
76126;BME280;65174;48.138;21.002;2023-04-01T04:55:53;97823.84;;;7.32;89.79
76126;BME280;65174;48.138;21.002;2023-04-01T04:59:15;97816.84;;;7.56;89.24
76126;BME280;65174;48.138;21.002;2023-04-01T05:02:24;97831.97;;;7.81;88.26
76126;BME280;65174;48.138;21.002;2023-04-01T05:05:26;97820.09;;;8.00;88.61
76126;BME280;65174;48.138;21.002;2023-04-01T05:08:28;97826.53;;;8.06;87.54
76126;BME280;65174;48.138;21.002;2023-04-01T05:11:31;97826.38;;;8.19;87.06
76126;BME280;65174;48.138;21.002;2023-04-01T05:14:32;97834.53;;;7.81;88.76
76126;BME280;65174;48.138;21.002;2023-04-01T05:17:47;97828.56;;;7.91;88.83
76126;BME280;65174;48.138;21.002;2023-04-01T05:20:51;97830.22;;;8.13;88.87
76126;BME280;65174;48.138;21.002;2023-04-01T05:23:54;97833.81;;;8.33;88.27
76126;BME280;65174;48.138;21.002;2023-04-01T05:26:59;97838.66;;;8.67;87.55
76126;BME280;65174;48.138;21.002;2023-04-01T05:30:02;97834.47;;;8.66;88.04
76126;BME280;65174;48.138;21.002;2023-04-01T05:33:18;97834.88;;;8.71;87.76
76126;BME280;65174;48.138;21.002;2023-04-01T05:36:20;97840.59;;;8.96;87.04
76126;BME280;65174;48.138;21.002;2023-04-01T05:39:23;97836.94;;;9.19;86.21
76126;BME280;65174;48.138;21.002;2023-04-01T05:42:25;97830.63;;;9.32;84.86
76126;BME280;65174;48.138;21.002;2023-04-01T05:48:47;97830.59;;;9.23;87.27
76126;BME280;65174;48.138;21.002;2023-04-01T05:51:49;97834.84;;;9.43;85.35
76126;BME280;65174;48.138;21.002;2023-04-01T05:54:53;97833.84;;;9.25;86.01
76126;BME280;65174;48.138;21.002;2023-04-01T05:57:54;97830.63;;;9.02;87.46
76126;BME280;65174;48.138;21.002;2023-04-01T06:01:01;97831.25;;;8.74;87.83
76126;BME280;65174;48.138;21.002;2023-04-01T06:04:15;97820.94;;;8.64;88.32
76126;BME280;65174;48.138;21.002;2023-04-01T06:07:19;97799.78;;;8.40;89.25
76126;BME280;65174;48.138;21.002;2023-04-01T06:10:21;97821.75;;;8.86;87.96
76126;BME280;65174;48.138;21.002;2023-04-01T06:13:37;97822.44;;;9.18;86.24
76126;BME280;65174;48.138;21.002;2023-04-01T06:37:07;97832.63;;;10.37;78.18
76126;BME280;65174;48.138;21.002;2023-04-01T06:54:37;97834.59;;;11.10;80.27
76126;BME280;65174;48.138;21.002;2023-04-01T06:57:51;97827.59;;;10.74;81.49
76126;BME280;65174;48.138;21.002;2023-04-01T07:00:58;97836.00;;;10.09;83.12
76126;BME280;65174;48.138;21.002;2023-04-01T07:07:33;97827.03;;;10.80;77.86
76126;BME280;65174;48.138;21.002;2023-04-01T07:14:25;97822.63;;;11.09;75.30
76126;BME280;65174;48.138;21.002;2023-04-01T07:17:33;97822.25;;;11.31;74.80
76126;BME280;65174;48.138;21.002;2023-04-01T07:20:37;97827.97;;;11.35;75.47
76126;BME280;65174;48.138;21.002;2023-04-01T07:23:42;97822.50;;;11.38;74.04
76126;BME280;65174;48.138;21.002;2023-04-01T07:27:16;97835.84;;;11.33;74.82
76126;BME280;65174;48.138;21.002;2023-04-01T07:30:21;97832.47;;;11.33;74.77
76126;BME280;65174;48.138;21.002;2023-04-01T07:33:39;97840.31;;;11.41;75.37
76126;BME280;65174;48.138;21.002;2023-04-01T07:57:50;97834.91;;;12.33;72.63
76126;BME280;65174;48.138;21.002;2023-04-01T08:01:13;97843.25;;;12.45;72.05
76126;BME280;65174;48.138;21.002;2023-04-01T08:11:47;97852.28;;;12.84;71.42
76126;BME280;65174;48.138;21.002;2023-04-01T08:25:24;97850.25;;;13.13;69.39
76126;BME280;65174;48.138;21.002;2023-04-01T09:12:38;97833.09;;;13.38;66.30
76126;BME280;65174;48.138;21.002;2023-04-01T09:19:20;97826.19;;;13.88;64.80
76126;BME280;65174;48.138;21.002;2023-04-01T09:26:27;97826.78;;;14.40;61.38
76126;BME280;65174;48.138;21.002;2023-04-01T09:30:06;97819.81;;;14.57;63.35
76126;BME280;65174;48.138;21.002;2023-04-01T09:36:45;97831.97;;;14.96;62.06
76126;BME280;65174;48.138;21.002;2023-04-01T09:43:20;97829.28;;;15.37;61.55
76126;BME280;65174;48.138;21.002;2023-04-01T09:46:57;97835.34;;;15.13;61.12
76126;BME280;65174;48.138;21.002;2023-04-01T09:53:20;97840.09;;;14.53;63.58
76126;BME280;65174;48.138;21.002;2023-04-01T10:04:07;97845.78;;;14.41;63.07
76126;BME280;65174;48.138;21.002;2023-04-01T10:14:38;97838.47;;;14.68;61.94
76126;BME280;65174;48.138;21.002;2023-04-01T10:35:14;97843.56;;;15.49;57.71
76126;BME280;65174;48.138;21.002;2023-04-01T10:46:28;97843.84;;;15.62;57.09
76126;BME280;65174;48.138;21.002;2023-04-01T10:53:34;97836.06;;;14.83;57.55
76126;BME280;65174;48.138;21.002;2023-04-01T11:12:00;97823.78;;;16.40;55.40
76126;BME280;65174;48.138;21.002;2023-04-01T11:15:21;97814.63;;;15.90;57.38
76126;BME280;65174;48.138;21.002;2023-04-01T11:25:53;97819.44;;;15.71;56.05
76126;BME280;65174;48.138;21.002;2023-04-01T11:50:21;97811.75;;;15.85;55.10
76126;BME280;65174;48.138;21.002;2023-04-01T12:09:46;97802.91;;;16.17;52.16
76126;BME280;65174;48.138;21.002;2023-04-01T12:12:58;97801.19;;;16.32;54.61
76126;BME280;65174;48.138;21.002;2023-04-01T12:36:47;97807.34;;;15.86;58.47
76126;BME280;65174;48.138;21.002;2023-04-01T12:50:07;97812.13;;;15.20;61.28
76126;BME280;65174;48.138;21.002;2023-04-01T12:53:28;97813.38;;;15.32;60.97
76126;BME280;65174;48.138;21.002;2023-04-01T12:57:09;97810.19;;;15.13;61.33
76126;BME280;65174;48.138;21.002;2023-04-01T13:04:48;97813.59;;;15.14;59.43
76126;BME280;65174;48.138;21.002;2023-04-01T13:14:27;97807.75;;;15.04;61.62
76126;BME280;65174;48.138;21.002;2023-04-01T13:18:04;97809.56;;;15.03;62.88
76126;BME280;65174;48.138;21.002;2023-04-01T13:28:00;97810.06;;;14.91;61.91
76126;BME280;65174;48.138;21.002;2023-04-01T13:31:49;97819.59;;;15.14;60.18
76126;BME280;65174;48.138;21.002;2023-04-01T13:35:24;97824.91;;;15.37;57.70
76126;BME280;65174;48.138;21.002;2023-04-01T13:54:51;97831.47;;;15.09;59.81
76126;BME280;65174;48.138;21.002;2023-04-01T13:58:23;97822.06;;;14.92;60.84
76126;BME280;65174;48.138;21.002;2023-04-01T14:01:49;97837.47;;;14.85;61.29
76126;BME280;65174;48.138;21.002;2023-04-01T14:12:06;97836.03;;;14.91;61.28
76126;BME280;65174;48.138;21.002;2023-04-01T14:18:37;97837.19;;;14.80;62.43
76126;BME280;65174;48.138;21.002;2023-04-01T14:28:56;97854.66;;;15.10;63.23
76126;BME280;65174;48.138;21.002;2023-04-01T14:35:31;97850.44;;;14.29;65.01
76126;BME280;65174;48.138;21.002;2023-04-01T14:45:55;97857.69;;;13.08;72.64
76126;BME280;65174;48.138;21.002;2023-04-01T14:49:15;97846.41;;;12.21;78.46
76126;BME280;65174;48.138;21.002;2023-04-01T14:52:31;97828.94;;;11.88;78.58
76126;BME280;65174;48.138;21.002;2023-04-01T14:58:44;97820.84;;;12.53;72.42
76126;BME280;65174;48.138;21.002;2023-04-01T15:02:15;97843.16;;;12.72;72.75
76126;BME280;65174;48.138;21.002;2023-04-01T15:12:04;97844.00;;;12.98;72.06
76126;BME280;65174;48.138;21.002;2023-04-01T15:22:04;97836.66;;;13.11;70.52
76126;BME280;65174;48.138;21.002;2023-04-01T15:29:43;97850.84;;;13.25;71.17
76126;BME280;65174;48.138;21.002;2023-04-01T15:33:02;97849.81;;;13.18;70.14
76126;BME280;65174;48.138;21.002;2023-04-01T15:36:16;97844.13;;;13.40;71.51
76126;BME280;65174;48.138;21.002;2023-04-01T15:42:44;97848.78;;;13.36;73.26
76126;BME280;65174;48.138;21.002;2023-04-01T15:46:44;97849.72;;;13.27;72.33
76126;BME280;65174;48.138;21.002;2023-04-01T15:49:47;97845.25;;;13.37;71.80
76126;BME280;65174;48.138;21.002;2023-04-01T15:53:03;97844.63;;;13.43;72.22
76126;BME280;65174;48.138;21.002;2023-04-01T16:06:29;97860.81;;;13.45;72.19
76126;BME280;65174;48.138;21.002;2023-04-01T16:13:04;97864.03;;;13.14;70.38
76126;BME280;65174;48.138;21.002;2023-04-01T16:19:51;97881.09;;;13.24;71.45
76126;BME280;65174;48.138;21.002;2023-04-01T16:23:00;97881.53;;;13.20;71.13
76126;BME280;65174;48.138;21.002;2023-04-01T16:26:13;97882.69;;;13.17;72.74
76126;BME280;65174;48.138;21.002;2023-04-01T16:35:59;97896.00;;;12.87;75.00
76126;BME280;65174;48.138;21.002;2023-04-01T16:39:36;97904.53;;;12.80;75.83
76126;BME280;65174;48.138;21.002;2023-04-01T16:46:36;97903.84;;;12.60;74.37
76126;BME280;65174;48.138;21.002;2023-04-01T16:49:46;97903.94;;;12.50;77.58
76126;BME280;65174;48.138;21.002;2023-04-01T16:53:01;97899.25;;;12.36;77.58
76126;BME280;65174;48.138;21.002;2023-04-01T16:56:23;97916.09;;;12.40;73.24
76126;BME280;65174;48.138;21.002;2023-04-01T16:59:43;97917.00;;;12.49;71.10
76126;BME280;65174;48.138;21.002;2023-04-01T17:06:28;97918.25;;;12.27;75.91
76126;BME280;65174;48.138;21.002;2023-04-01T17:09:36;97933.03;;;12.08;76.97
76126;BME280;65174;48.138;21.002;2023-04-01T17:13:03;97937.81;;;12.03;76.49
76126;BME280;65174;48.138;21.002;2023-04-01T17:16:30;97939.72;;;12.01;76.64
76126;BME280;65174;48.138;21.002;2023-04-01T17:37:26;97965.91;;;12.15;68.41
76126;BME280;65174;48.138;21.002;2023-04-01T17:50:44;97986.75;;;12.14;70.82
76126;BME280;65174;48.138;21.002;2023-04-01T18:04:15;97991.94;;;11.48;75.24
76126;BME280;65174;48.138;21.002;2023-04-01T18:17:24;98004.91;;;11.10;76.07
76126;BME280;65174;48.138;21.002;2023-04-01T18:20:33;98003.81;;;11.03;73.19
76126;BME280;65174;48.138;21.002;2023-04-01T18:23:55;98009.53;;;11.16;73.03
76126;BME280;65174;48.138;21.002;2023-04-01T18:27:29;98008.03;;;11.13;73.52
76126;BME280;65174;48.138;21.002;2023-04-01T18:45:46;98013.81;;;11.63;69.85
76126;BME280;65174;48.138;21.002;2023-04-01T18:52:03;98012.09;;;11.35;72.22
76126;BME280;65174;48.138;21.002;2023-04-01T19:05:34;98013.06;;;11.05;75.64
76126;BME280;65174;48.138;21.002;2023-04-01T19:08:41;98011.13;;;11.17;74.61
76126;BME280;65174;48.138;21.002;2023-04-01T19:12:02;98015.22;;;11.00;75.03
76126;BME280;65174;48.138;21.002;2023-04-01T19:22:40;98014.00;;;11.24;70.08
76126;BME280;65174;48.138;21.002;2023-04-01T19:25:40;98013.03;;;11.34;70.70
76126;BME280;65174;48.138;21.002;2023-04-01T19:28:56;98016.69;;;11.32;70.57
76126;BME280;65174;48.138;21.002;2023-04-01T19:35:52;98035.59;;;11.70;66.66
76126;BME280;65174;48.138;21.002;2023-04-01T19:42:48;98043.47;;;11.78;66.62
76126;BME280;65174;48.138;21.002;2023-04-01T19:52:33;98059.50;;;11.53;68.74
76126;BME280;65174;48.138;21.002;2023-04-01T19:55:44;98051.63;;;11.45;69.09
76126;BME280;65174;48.138;21.002;2023-04-01T19:59:04;98058.81;;;11.42;68.64
76126;BME280;65174;48.138;21.002;2023-04-01T20:15:34;98070.91;;;11.12;68.69
76126;BME280;65174;48.138;21.002;2023-04-01T20:18:44;98072.53;;;11.04;69.52
76126;BME280;65174;48.138;21.002;2023-04-01T20:21:49;98077.41;;;10.88;70.41
76126;BME280;65174;48.138;21.002;2023-04-01T20:24:52;98073.44;;;10.84;70.49
76126;BME280;65174;48.138;21.002;2023-04-01T20:28:11;98079.69;;;10.72;71.62
76126;BME280;65174;48.138;21.002;2023-04-01T20:31:25;98071.94;;;10.72;72.10
76126;BME280;65174;48.138;21.002;2023-04-01T20:34:50;98075.78;;;10.87;70.96
76126;BME280;65174;48.138;21.002;2023-04-01T20:45:35;98077.50;;;10.77;71.49
76126;BME280;65174;48.138;21.002;2023-04-01T21:02:47;98095.00;;;10.64;73.36
76126;BME280;65174;48.138;21.002;2023-04-01T21:16:03;98111.44;;;10.32;75.31
76126;BME280;65174;48.138;21.002;2023-04-01T21:45:39;98118.13;;;9.62;81.84
76126;BME280;65174;48.138;21.002;2023-04-01T22:09:13;98135.59;;;9.58;81.42
76126;BME280;65174;48.138;21.002;2023-04-01T22:12:35;98141.88;;;9.66;80.79
76126;BME280;65174;48.138;21.002;2023-04-01T22:22:18;98144.75;;;9.72;79.85
76126;BME280;65174;48.138;21.002;2023-04-01T22:25:31;98146.78;;;9.69;79.94
76126;BME280;65174;48.138;21.002;2023-04-01T22:38:08;98143.09;;;10.03;78.76
76126;BME280;65174;48.138;21.002;2023-04-01T22:45:38;98139.56;;;10.24;77.93
76126;BME280;65174;48.138;21.002;2023-04-01T22:48:20;98146.22;;;10.06;78.16
76126;BME280;65174;48.138;21.002;2023-04-01T22:54:56;98153.88;;;9.76;79.77
76126;BME280;65174;48.138;21.002;2023-04-01T22:58:03;98156.72;;;9.73;79.72
76126;BME280;65174;48.138;21.002;2023-04-01T23:01:12;98163.09;;;9.58;80.39
76126;BME280;65174;48.138;21.002;2023-04-01T23:04:21;98163.44;;;9.53;80.13
76126;BME280;65174;48.138;21.002;2023-04-01T23:17:39;98175.97;;;9.58;79.79
76126;BME280;65174;48.138;21.002;2023-04-01T23:21:28;98167.94;;;9.72;79.56
76126;BME280;65174;48.138;21.002;2023-04-01T23:24:44;98177.44;;;9.72;79.36
76126;BME280;65174;48.138;21.002;2023-04-01T23:28:22;98191.94;;;9.73;79.14
76126;BME280;65174;48.138;21.002;2023-04-01T23:31:33;98191.91;;;9.84;78.72
76126;BME280;65174;48.138;21.002;2023-04-01T23:34:36;98183.81;;;9.88;78.21
76126;BME280;65174;48.138;21.002;2023-04-01T23:37:38;98186.75;;;10.04;77.58
76126;BME280;65174;48.138;21.002;2023-04-01T23:40:41;98192.59;;;10.06;76.92
76126;BME280;65174;48.138;21.002;2023-04-01T23:43:44;98188.13;;;10.19;76.62
76126;BME280;65174;48.138;21.002;2023-04-01T23:46:47;98192.97;;;10.13;76.76
76126;BME280;65174;48.138;21.002;2023-04-01T23:49:53;98197.25;;;10.23;77.12
76126;BME280;65174;48.138;21.002;2023-04-01T23:53:26;98193.28;;;10.19;76.30
76126;BME280;65174;48.138;21.002;2023-04-01T23:56:51;98203.03;;;10.36;75.49
